sensor_id;sensor_type;location;lat;lon;timestamp;pressure;altitude;pressure_sealevel;temperature;humidity
4410;BME280;2218;51.408;7.208;2024-01-15T00:00:30;98356.84;;;16.87;35.04
4410;BME280;2218;51.408;7.208;2024-01-15T00:02:57;98359.47;;;16.87;35.06
4410;BME280;2218;51.408;7.208;2024-01-15T00:05:24;98356.84;;;16.87;34.88
4410;BME280;2218;51.408;7.208;2024-01-15T00:07:51;98361.38;;;16.85;35.05
4410;BME280;2218;51.408;7.208;2024-01-15T00:10:18;98354.34;;;16.85;35.11
4410;BME280;2218;51.408;7.208;2024-01-15T00:12:45;98355.28;;;16.84;35.14
4410;BME280;2218;51.408;7.208;2024-01-15T00:15:12;98340.66;;;16.82;35.04
4410;BME280;2218;51.408;7.208;2024-01-15T00:17:41;98345.91;;;16.82;35.06
4410;BME280;2218;51.408;7.208;2024-01-15T00:20:08;98338.13;;;16.80;34.99
4410;BME280;2218;51.408;7.208;2024-01-15T00:22:35;98338.97;;;16.80;35.06
4410;BME280;2218;51.408;7.208;2024-01-15T00:25:03;98331.22;;;16.79;35.07
4410;BME280;2218;51.408;7.208;2024-01-15T00:27:30;98331.34;;;16.77;35.18
4410;BME280;2218;51.408;7.208;2024-01-15T00:29:57;98318.47;;;16.74;35.11
4410;BME280;2218;51.408;7.208;2024-01-15T00:32:24;98324.56;;;16.75;35.03
4410;BME280;2218;51.408;7.208;2024-01-15T00:34:52;98327.31;;;16.73;35.05
4410;BME280;2218;51.408;7.208;2024-01-15T00:37:19;98330.88;;;16.72;35.22
4410;BME280;2218;51.408;7.208;2024-01-15T00:39:46;98324.81;;;16.72;35.29
4410;BME280;2218;51.408;7.208;2024-01-15T00:42:14;98318.75;;;16.71;35.41
4410;BME280;2218;51.408;7.208;2024-01-15T00:44:41;98325.75;;;16.71;34.89
4410;BME280;2218;51.408;7.208;2024-01-15T00:47:08;98325.84;;;16.69;35.10
4410;BME280;2218;51.408;7.208;2024-01-15T00:49:35;98318.94;;;16.68;35.34
4410;BME280;2218;51.408;7.208;2024-01-15T00:52:04;98319.91;;;16.67;35.26
4410;BME280;2218;51.408;7.208;2024-01-15T00:54:31;98315.63;;;16.66;35.20
4410;BME280;2218;51.408;7.208;2024-01-15T00:56:58;98320.88;;;16.66;35.08
4410;BME280;2218;51.408;7.208;2024-01-15T00:59:25;98315.72;;;16.65;35.36
4410;BME280;2218;51.408;7.208;2024-01-15T01:01:53;98316.69;;;16.64;35.11
4410;BME280;2218;51.408;7.208;2024-01-15T01:04:20;98313.22;;;16.63;35.11
4410;BME280;2218;51.408;7.208;2024-01-15T01:06:47;98314.19;;;16.62;35.29
4410;BME280;2218;51.408;7.208;2024-01-15T01:09:15;98307.28;;;16.61;35.21
4410;BME280;2218;51.408;7.208;2024-01-15T01:11:42;98311.66;;;16.61;35.31
4410;BME280;2218;51.408;7.208;2024-01-15T01:14:09;98316.09;;;16.60;35.27
4410;BME280;2218;51.408;7.208;2024-01-15T01:16:36;98310.84;;;16.60;35.43
4410;BME280;2218;51.408;7.208;2024-01-15T01:19:04;98305.72;;;16.59;35.46
4410;BME280;2218;51.408;7.208;2024-01-15T01:21:32;98297.03;;;16.58;35.46
4410;BME280;2218;51.408;7.208;2024-01-15T01:23:59;98299.66;;;16.58;35.33
4410;BME280;2218;51.408;7.208;2024-01-15T01:26:28;98304.22;;;16.56;35.26
4410;BME280;2218;51.408;7.208;2024-01-15T01:28:55;98302.50;;;16.55;35.21
4410;BME280;2218;51.408;7.208;2024-01-15T01:31:23;98302.50;;;16.55;35.30
4410;BME280;2218;51.408;7.208;2024-01-15T01:33:50;98305.13;;;16.55;35.42
4410;BME280;2218;51.408;7.208;2024-01-15T01:36:17;98309.44;;;16.56;35.24
4410;BME280;2218;51.408;7.208;2024-01-15T01:38:45;98316.09;;;16.60;35.15
4410;BME280;2218;51.408;7.208;2024-01-15T01:41:12;98310.47;;;16.65;35.29
4410;BME280;2218;51.408;7.208;2024-01-15T01:43:40;98304.16;;;16.67;35.15
4410;BME280;2218;51.408;7.208;2024-01-15T01:46:06;98296.91;;;16.71;35.03
4410;BME280;2218;51.408;7.208;2024-01-15T01:48:34;98302.50;;;16.77;34.87
4410;BME280;2218;51.408;7.208;2024-01-15T01:51:03;98303.09;;;16.81;34.92
4410;BME280;2218;51.408;7.208;2024-01-15T01:53:33;98308.06;;;16.84;34.76
4410;BME280;2218;51.408;7.208;2024-01-15T01:56:03;98312.25;;;16.87;34.86
4410;BME280;2218;51.408;7.208;2024-01-15T01:58:32;98299.81;;;16.89;35.12
4410;BME280;2218;51.408;7.208;2024-01-15T02:01:01;98297.06;;;16.90;34.91
4410;BME280;2218;51.408;7.208;2024-01-15T02:03:30;98311.75;;;16.93;34.78
4410;BME280;2218;51.408;7.208;2024-01-15T02:05:57;98308.16;;;16.94;34.63
4410;BME280;2218;51.408;7.208;2024-01-15T02:08:25;98301.94;;;16.95;34.56
4410;BME280;2218;51.408;7.208;2024-01-15T02:10:52;98308.75;;;16.97;34.62
4410;BME280;2218;51.408;7.208;2024-01-15T02:13:20;98305.97;;;16.99;34.62
4410;BME280;2218;51.408;7.208;2024-01-15T02:15:47;98308.59;;;16.99;34.56
4410;BME280;2218;51.408;7.208;2024-01-15T02:18:16;98311.97;;;17.01;34.78
4410;BME280;2218;51.408;7.208;2024-01-15T02:20:42;98304.91;;;17.01;34.78
4410;BME280;2218;51.408;7.208;2024-01-15T02:23:14;98305.75;;;17.02;34.56
4410;BME280;2218;51.408;7.208;2024-01-15T02:25:43;98311.69;;;17.04;34.80
4410;BME280;2218;51.408;7.208;2024-01-15T02:28:14;98315.16;;;17.04;34.46
4410;BME280;2218;51.408;7.208;2024-01-15T02:30:43;98315.03;;;17.06;34.61
4410;BME280;2218;51.408;7.208;2024-01-15T02:33:11;98308.81;;;17.07;34.67
4410;BME280;2218;51.408;7.208;2024-01-15T02:35:38;98307.03;;;17.08;34.49
4410;BME280;2218;51.408;7.208;2024-01-15T02:38:08;98313.81;;;17.10;34.66
4410;BME280;2218;51.408;7.208;2024-01-15T02:40:38;98305.22;;;17.08;34.36
4410;BME280;2218;51.408;7.208;2024-01-15T02:43:05;98308.56;;;17.10;34.64
4410;BME280;2218;51.408;7.208;2024-01-15T02:45:32;98307.63;;;17.11;34.51
4410;BME280;2218;51.408;7.208;2024-01-15T02:47:59;98307.47;;;17.13;34.55
4410;BME280;2218;51.408;7.208;2024-01-15T02:50:27;98309.28;;;17.12;34.36
4410;BME280;2218;51.408;7.208;2024-01-15T02:52:54;98303.06;;;17.13;34.41
4410;BME280;2218;51.408;7.208;2024-01-15T02:55:21;98298.66;;;17.14;34.50
4410;BME280;2218;51.408;7.208;2024-01-15T02:57:49;98296.03;;;17.14;34.66
4410;BME280;2218;51.408;7.208;2024-01-15T03:00:16;98295.06;;;17.15;34.40
4410;BME280;2218;51.408;7.208;2024-01-15T03:02:44;98298.50;;;17.15;34.49
4410;BME280;2218;51.408;7.208;2024-01-15T03:05:12;98289.81;;;17.15;34.36
4410;BME280;2218;51.408;7.208;2024-01-15T03:07:39;98297.56;;;17.16;34.35
4410;BME280;2218;51.408;7.208;2024-01-15T03:10:07;98293.16;;;17.17;34.35
4410;BME280;2218;51.408;7.208;2024-01-15T03:12:34;98300.88;;;17.18;34.18
4410;BME280;2218;51.408;7.208;2024-01-15T03:15:03;98289.69;;;17.16;34.42
4410;BME280;2218;51.408;7.208;2024-01-15T03:17:30;98300.06;;;17.18;34.47
4410;BME280;2218;51.408;7.208;2024-01-15T03:19:57;98298.41;;;17.17;34.50
4410;BME280;2218;51.408;7.208;2024-01-15T03:22:24;98300.88;;;17.18;34.16
4410;BME280;2218;51.408;7.208;2024-01-15T03:24:52;98295.63;;;17.18;34.45
4410;BME280;2218;51.408;7.208;2024-01-15T03:27:20;98301.72;;;17.19;34.43
4410;BME280;2218;51.408;7.208;2024-01-15T03:29:47;98302.53;;;17.19;34.53
4410;BME280;2218;51.408;7.208;2024-01-15T03:32:16;98304.22;;;17.20;34.31
4410;BME280;2218;51.408;7.208;2024-01-15T03:34:43;98298.97;;;17.20;34.29
4410;BME280;2218;51.408;7.208;2024-01-15T03:37:10;98306.72;;;17.22;34.42
4410;BME280;2218;51.408;7.208;2024-01-15T03:39:38;98299.69;;;17.22;34.24
4410;BME280;2218;51.408;7.208;2024-01-15T03:42:06;98294.44;;;17.22;34.25
4410;BME280;2218;51.408;7.208;2024-01-15T03:44:32;98298.72;;;17.23;34.26
4410;BME280;2218;51.408;7.208;2024-01-15T03:46:59;98293.47;;;17.23;34.35
4410;BME280;2218;51.408;7.208;2024-01-15T03:49:28;98300.38;;;17.24;34.22
4410;BME280;2218;51.408;7.208;2024-01-15T03:51:55;98301.34;;;17.23;34.38
4410;BME280;2218;51.408;7.208;2024-01-15T03:54:22;98300.38;;;17.24;34.33
4410;BME280;2218;51.408;7.208;2024-01-15T03:56:49;98305.63;;;17.24;34.31
4410;BME280;2218;51.408;7.208;2024-01-15T03:59:16;98302.03;;;17.25;34.09
4410;BME280;2218;51.408;7.208;2024-01-15T04:01:49;98303.72;;;17.26;33.91
4410;BME280;2218;51.408;7.208;2024-01-15T04:04:16;98297.66;;;17.26;33.99
4410;BME280;2218;51.408;7.208;2024-01-15T04:06:45;98298.47;;;17.26;34.20
4410;BME280;2218;51.408;7.208;2024-01-15T04:09:12;98289.63;;;17.27;34.03
4410;BME280;2218;51.408;7.208;2024-01-15T04:11:39;98295.72;;;17.28;34.29
4410;BME280;2218;51.408;7.208;2024-01-15T04:14:06;98281.75;;;17.27;34.25
4410;BME280;2218;51.408;7.208;2024-01-15T04:16:34;98278.16;;;17.28;34.06
4410;BME280;2218;51.408;7.208;2024-01-15T04:19:01;98286.03;;;17.28;34.29
4410;BME280;2218;51.408;7.208;2024-01-15T04:21:28;98277.19;;;17.29;34.11
4410;BME280;2218;51.408;7.208;2024-01-15T04:23:56;98275.53;;;17.28;34.11
4410;BME280;2218;51.408;7.208;2024-01-15T04:26:23;98265.84;;;17.29;34.15
4410;BME280;2218;51.408;7.208;2024-01-15T04:28:50;98263.13;;;17.30;34.13
4410;BME280;2218;51.408;7.208;2024-01-15T04:31:22;98257.88;;;17.30;34.13
4410;BME280;2218;51.408;7.208;2024-01-15T04:33:49;98259.53;;;17.31;34.41
4410;BME280;2218;51.408;7.208;2024-01-15T04:36:16;98256.09;;;17.31;34.08
4410;BME280;2218;51.408;7.208;2024-01-15T04:38:43;98246.41;;;17.31;34.04
4410;BME280;2218;51.408;7.208;2024-01-15T04:41:13;98243.78;;;17.31;33.93
4410;BME280;2218;51.408;7.208;2024-01-15T04:43:41;98239.34;;;17.32;34.06
4410;BME280;2218;51.408;7.208;2024-01-15T04:46:08;98242.81;;;17.33;34.13
4410;BME280;2218;51.408;7.208;2024-01-15T04:48:36;98234.94;;;17.33;33.96
4410;BME280;2218;51.408;7.208;2024-01-15T04:51:05;98243.78;;;17.31;34.22
4410;BME280;2218;51.408;7.208;2024-01-15T04:53:33;98241.97;;;17.32;33.99
4410;BME280;2218;51.408;7.208;2024-01-15T04:56:00;98236.59;;;17.34;34.07
4410;BME280;2218;51.408;7.208;2024-01-15T04:58:29;98236.59;;;17.34;33.86
4410;BME280;2218;51.408;7.208;2024-01-15T05:00:56;98231.34;;;17.34;34.07
4410;BME280;2218;51.408;7.208;2024-01-15T05:03:23;98231.34;;;17.34;34.04
4410;BME280;2218;51.408;7.208;2024-01-15T05:05:49;98243.50;;;17.35;33.93
4410;BME280;2218;51.408;7.208;2024-01-15T05:08:16;98229.53;;;17.34;34.12
4410;BME280;2218;51.408;7.208;2024-01-15T05:10:44;98229.44;;;17.36;33.88
4410;BME280;2218;51.408;7.208;2024-01-15T05:13:11;98230.28;;;17.36;34.02
4410;BME280;2218;51.408;7.208;2024-01-15T05:15:39;98227.50;;;17.38;34.06
4410;BME280;2218;51.408;7.208;2024-01-15T05:18:06;98223.91;;;17.39;34.27
4410;BME280;2218;51.408;7.208;2024-01-15T05:20:34;98222.84;;;17.41;33.82
4410;BME280;2218;51.408;7.208;2024-01-15T05:23:00;98222.69;;;17.43;34.02
4410;BME280;2218;51.408;7.208;2024-01-15T05:25:27;98219.09;;;17.44;33.93
4410;BME280;2218;51.408;7.208;2024-01-15T05:27:54;98220.66;;;17.46;34.01
4410;BME280;2218;51.408;7.208;2024-01-15T05:30:22;98218.72;;;17.48;34.02
4410;BME280;2218;51.408;7.208;2024-01-15T05:32:50;98218.56;;;17.50;33.95
4410;BME280;2218;51.408;7.208;2024-01-15T05:35:18;98222.88;;;17.51;33.88
4410;BME280;2218;51.408;7.208;2024-01-15T05:37:46;98212.38;;;17.51;33.90
4410;BME280;2218;51.408;7.208;2024-01-15T05:40:13;98209.59;;;17.52;33.96
4410;BME280;2218;51.408;7.208;2024-01-15T05:42:41;98219.00;;;17.55;33.76
4410;BME280;2218;51.408;7.208;2024-01-15T05:45:09;98210.19;;;17.56;34.07
4410;BME280;2218;51.408;7.208;2024-01-15T05:47:36;98219.88;;;17.55;33.56
4410;BME280;2218;51.408;7.208;2024-01-15T05:50:05;98215.44;;;17.56;33.81
4410;BME280;2218;51.408;7.208;2024-01-15T05:52:32;98200.38;;;17.58;33.90
4410;BME280;2218;51.408;7.208;2024-01-15T05:54:59;98209.91;;;17.59;34.23
4410;BME280;2218;51.408;7.208;2024-01-15T05:57:26;98211.56;;;17.60;33.89
4410;BME280;2218;51.408;7.208;2024-01-15T05:59:54;98211.44;;;17.62;33.96
4410;BME280;2218;51.408;7.208;2024-01-15T06:02:21;98208.00;;;17.61;34.00
4410;BME280;2218;51.408;7.208;2024-01-15T06:04:48;98204.41;;;17.62;34.00
4410;BME280;2218;51.408;7.208;2024-01-15T06:07:16;98211.31;;;17.63;33.81
4410;BME280;2218;51.408;7.208;2024-01-15T06:09:43;98208.53;;;17.65;33.70
4410;BME280;2218;51.408;7.208;2024-01-15T06:12:11;98205.81;;;17.66;33.81
4410;BME280;2218;51.408;7.208;2024-01-15T06:14:38;98200.66;;;17.65;33.92
4410;BME280;2218;51.408;7.208;2024-01-15T06:17:07;98207.47;;;17.67;33.74
4410;BME280;2218;51.408;7.208;2024-01-15T06:19:34;98194.31;;;17.67;33.67
4410;BME280;2218;51.408;7.208;2024-01-15T06:22:01;98194.19;;;17.69;33.79
4410;BME280;2218;51.408;7.208;2024-01-15T06:24:29;98192.38;;;17.69;33.68
4410;BME280;2218;51.408;7.208;2024-01-15T06:26:56;98191.44;;;17.70;33.75
4410;BME280;2218;51.408;7.208;2024-01-15T06:29:26;98187.84;;;17.71;33.65
4410;BME280;2218;51.408;7.208;2024-01-15T06:31:53;98182.59;;;17.71;33.92
4410;BME280;2218;51.408;7.208;2024-01-15T06:34:20;98180.78;;;17.72;33.88
4410;BME280;2218;51.408;7.208;2024-01-15T06:36:47;98184.03;;;17.75;33.62
4410;BME280;2218;51.408;7.208;2024-01-15T06:39:14;98181.81;;;17.80;33.97
4410;BME280;2218;51.408;7.208;2024-01-15T06:41:42;98188.41;;;18.15;33.69
4410;BME280;2218;51.408;7.208;2024-01-15T06:44:11;98190.78;;;18.38;33.68
4410;BME280;2218;51.408;7.208;2024-01-15T06:46:42;98182.47;;;18.52;33.10
4410;BME280;2218;51.408;7.208;2024-01-15T06:49:10;98174.44;;;18.63;33.07
4410;BME280;2218;51.408;7.208;2024-01-15T06:51:37;98180.56;;;18.73;32.97
4410;BME280;2218;51.408;7.208;2024-01-15T06:54:04;98173.34;;;18.85;32.92
4410;BME280;2218;51.408;7.208;2024-01-15T06:56:32;98187.75;;;18.91;32.79
4410;BME280;2218;51.408;7.208;2024-01-15T06:59:00;98181.34;;;18.93;33.08
4410;BME280;2218;51.408;7.208;2024-01-15T07:01:29;98183.56;;;18.98;33.32
4410;BME280;2218;51.408;7.208;2024-01-15T07:03:56;98183.00;;;19.04;32.73
4410;BME280;2218;51.408;7.208;2024-01-15T07:06:23;98181.75;;;19.08;32.67
4410;BME280;2218;51.408;7.208;2024-01-15T07:08:50;98188.25;;;19.14;32.78
4410;BME280;2218;51.408;7.208;2024-01-15T07:11:17;98185.19;;;19.18;32.73
4410;BME280;2218;51.408;7.208;2024-01-15T07:13:44;98184.59;;;19.24;32.62
4410;BME280;2218;51.408;7.208;2024-01-15T07:16:12;98194.88;;;19.27;32.63
4410;BME280;2218;51.408;7.208;2024-01-15T07:18:39;98189.03;;;19.24;32.45
4410;BME280;2218;51.408;7.208;2024-01-15T07:21:07;98187.66;;;19.29;32.37
4410;BME280;2218;51.408;7.208;2024-01-15T07:23:34;98194.59;;;19.30;32.04
4410;BME280;2218;51.408;7.208;2024-01-15T07:26:03;98192.34;;;19.35;31.93
4410;BME280;2218;51.408;7.208;2024-01-15T07:28:31;98197.31;;;19.38;31.59
4410;BME280;2218;51.408;7.208;2024-01-15T07:30:58;98194.25;;;19.43;32.27
4410;BME280;2218;51.408;7.208;2024-01-15T07:33:27;98191.53;;;19.35;31.47
4410;BME280;2218;51.408;7.208;2024-01-15T07:35:54;98201.13;;;19.17;32.37
4410;BME280;2218;51.408;7.208;2024-01-15T07:38:21;98198.53;;;19.07;32.64
4410;BME280;2218;51.408;7.208;2024-01-15T07:40:48;98197.53;;;19.08;32.57
4410;BME280;2218;51.408;7.208;2024-01-15T07:43:15;98189.94;;;19.05;32.76
4410;BME280;2218;51.408;7.208;2024-01-15T07:45:43;98190.91;;;19.04;32.99
4410;BME280;2218;51.408;7.208;2024-01-15T07:48:11;98191.88;;;19.03;32.56
4410;BME280;2218;51.408;7.208;2024-01-15T07:50:40;98197.28;;;19.01;32.65
4410;BME280;2218;51.408;7.208;2024-01-15T07:53:07;98188.84;;;18.98;32.80
4410;BME280;2218;51.408;7.208;2024-01-15T07:55:34;98190.78;;;18.96;32.86
4410;BME280;2218;51.408;7.208;2024-01-15T07:58:02;98190.78;;;18.96;32.84
4410;BME280;2218;51.408;7.208;2024-01-15T08:00:30;98192.44;;;18.97;32.72
4410;BME280;2218;51.408;7.208;2024-01-15T08:02:57;98188.97;;;18.96;32.77
4410;BME280;2218;51.408;7.208;2024-01-15T08:05:24;98181.91;;;18.97;33.00
4410;BME280;2218;51.408;7.208;2024-01-15T08:07:52;98183.88;;;18.95;32.84
4410;BME280;2218;51.408;7.208;2024-01-15T08:10:20;98182.88;;;18.96;32.89
4410;BME280;2218;51.408;7.208;2024-01-15T08:12:47;98184.69;;;18.95;32.62
4410;BME280;2218;51.408;7.208;2024-01-15T08:15:15;98172.47;;;18.94;32.78
4410;BME280;2218;51.408;7.208;2024-01-15T08:17:44;98172.47;;;18.94;32.74
4410;BME280;2218;51.408;7.208;2024-01-15T08:20:12;98175.00;;;18.96;33.02
4410;BME280;2218;51.408;7.208;2024-01-15T08:22:44;98173.34;;;18.95;32.97
4410;BME280;2218;51.408;7.208;2024-01-15T08:25:15;98175.97;;;18.95;32.93
4410;BME280;2218;51.408;7.208;2024-01-15T08:27:42;98180.25;;;18.96;33.08
4410;BME280;2218;51.408;7.208;2024-01-15T08:30:11;98175.25;;;18.93;33.46
4410;BME280;2218;51.408;7.208;2024-01-15T08:32:38;98171.66;;;18.94;33.13
4410;BME280;2218;51.408;7.208;2024-01-15T08:35:08;98175.00;;;18.96;33.10
4410;BME280;2218;51.408;7.208;2024-01-15T08:37:35;98176.38;;;19.00;33.24
4410;BME280;2218;51.408;7.208;2024-01-15T08:40:02;98170.97;;;19.01;33.03
4410;BME280;2218;51.408;7.208;2024-01-15T08:42:31;98172.63;;;19.02;33.40
4410;BME280;2218;51.408;7.208;2024-01-15T08:44:57;98168.19;;;19.03;33.48
4410;BME280;2218;51.408;7.208;2024-01-15T08:47:24;98172.47;;;19.04;33.29
4410;BME280;2218;51.408;7.208;2024-01-15T08:49:51;98176.06;;;19.03;33.29
4410;BME280;2218;51.408;7.208;2024-01-15T08:52:18;98177.72;;;19.04;33.46
4410;BME280;2218;51.408;7.208;2024-01-15T08:54:46;98181.06;;;19.06;33.60
4410;BME280;2218;51.408;7.208;2024-01-15T08:57:13;98189.09;;;19.04;33.51
4410;BME280;2218;51.408;7.208;2024-01-15T08:59:41;98192.69;;;19.03;33.43
4410;BME280;2218;51.408;7.208;2024-01-15T09:02:08;98183.81;;;19.04;33.50
4410;BME280;2218;51.408;7.208;2024-01-15T09:04:35;98183.69;;;19.06;33.45
4410;BME280;2218;51.408;7.208;2024-01-15T09:07:02;98190.63;;;19.07;33.39
4410;BME280;2218;51.408;7.208;2024-01-15T09:09:29;98194.91;;;19.08;33.42
4410;BME280;2218;51.408;7.208;2024-01-15T09:11:56;98192.28;;;19.08;33.45
4410;BME280;2218;51.408;7.208;2024-01-15T09:14:23;98192.28;;;19.08;33.27
4410;BME280;2218;51.408;7.208;2024-01-15T09:16:53;98199.19;;;19.09;33.51
4410;BME280;2218;51.408;7.208;2024-01-15T09:19:21;98205.44;;;19.08;33.71
4410;BME280;2218;51.408;7.208;2024-01-15T09:21:48;98206.28;;;19.08;33.48
4410;BME280;2218;51.408;7.208;2024-01-15T09:24:15;98207.09;;;19.09;33.81
4410;BME280;2218;51.408;7.208;2024-01-15T09:26:42;98208.63;;;19.11;33.51
4410;BME280;2218;51.408;7.208;2024-01-15T09:29:10;98208.78;;;19.10;33.83
4410;BME280;2218;51.408;7.208;2024-01-15T09:31:37;98204.34;;;19.10;34.08
4410;BME280;2218;51.408;7.208;2024-01-15T09:34:05;98205.16;;;19.11;33.75
4410;BME280;2218;51.408;7.208;2024-01-15T09:36:32;98202.38;;;19.13;33.83
4410;BME280;2218;51.408;7.208;2024-01-15T09:38:59;98206.81;;;19.12;33.94
4410;BME280;2218;51.408;7.208;2024-01-15T09:41:26;98201.56;;;19.12;34.44
4410;BME280;2218;51.408;7.208;2024-01-15T09:43:53;98206.66;;;19.14;33.77
4410;BME280;2218;51.408;7.208;2024-01-15T09:46:21;98211.09;;;19.13;33.89
4410;BME280;2218;51.408;7.208;2024-01-15T09:48:48;98217.09;;;19.15;33.88
4410;BME280;2218;51.408;7.208;2024-01-15T09:51:16;98222.34;;;19.15;34.10
4410;BME280;2218;51.408;7.208;2024-01-15T09:53:45;98222.34;;;19.15;33.98
4410;BME280;2218;51.408;7.208;2024-01-15T09:56:14;98224.00;;;19.16;34.24
4410;BME280;2218;51.408;7.208;2024-01-15T09:58:41;98221.38;;;19.16;34.08
4410;BME280;2218;51.408;7.208;2024-01-15T10:01:09;98219.56;;;19.17;34.06
4410;BME280;2218;51.408;7.208;2024-01-15T10:03:39;98225.66;;;19.17;34.15
4410;BME280;2218;51.408;7.208;2024-01-15T10:06:09;98221.06;;;19.19;33.81
4410;BME280;2218;51.408;7.208;2024-01-15T10:08:38;98216.66;;;19.20;33.80
4410;BME280;2218;51.408;7.208;2024-01-15T10:11:05;98222.59;;;19.22;33.82
4410;BME280;2218;51.408;7.208;2024-01-15T10:13:33;98216.50;;;19.21;33.72
4410;BME280;2218;51.408;7.208;2024-01-15T10:16:01;98220.13;;;19.20;33.82
4410;BME280;2218;51.408;7.208;2024-01-15T10:18:29;98210.53;;;19.19;33.82
4410;BME280;2218;51.408;7.208;2024-01-15T10:20:56;98214.16;;;19.18;33.87
4410;BME280;2218;51.408;7.208;2024-01-15T10:23:24;98207.06;;;19.19;33.59
4410;BME280;2218;51.408;7.208;2024-01-15T10:25:52;98202.63;;;19.19;33.34
4410;BME280;2218;51.408;7.208;2024-01-15T10:28:19;98209.59;;;19.20;33.25
4410;BME280;2218;51.408;7.208;2024-01-15T10:30:52;98209.44;;;19.22;32.91
4410;BME280;2218;51.408;7.208;2024-01-15T10:33:22;98209.16;;;19.25;33.28
4410;BME280;2218;51.408;7.208;2024-01-15T10:35:54;98208.03;;;19.27;33.08
4410;BME280;2218;51.408;7.208;2024-01-15T10:38:22;98199.31;;;19.27;33.19
4410;BME280;2218;51.408;7.208;2024-01-15T10:40:53;98203.75;;;19.26;33.25
4410;BME280;2218;51.408;7.208;2024-01-15T10:43:21;98201.13;;;19.26;33.13
4410;BME280;2218;51.408;7.208;2024-01-15T10:45:50;98201.94;;;19.27;33.05
4410;BME280;2218;51.408;7.208;2024-01-15T10:48:19;98203.75;;;19.26;33.35
4410;BME280;2218;51.408;7.208;2024-01-15T10:50:47;98211.50;;;19.28;33.41
4410;BME280;2218;51.408;7.208;2024-01-15T10:53:17;98210.66;;;19.27;32.88
4410;BME280;2218;51.408;7.208;2024-01-15T10:55:47;98210.66;;;19.27;33.12
4410;BME280;2218;51.408;7.208;2024-01-15T10:58:16;98200.97;;;19.28;33.11
4410;BME280;2218;51.408;7.208;2024-01-15T11:00:45;98201.13;;;19.26;33.13
4410;BME280;2218;51.408;7.208;2024-01-15T11:03:13;98208.19;;;19.26;33.27
4410;BME280;2218;51.408;7.208;2024-01-15T11:05:43;98215.09;;;19.27;33.37
4410;BME280;2218;51.408;7.208;2024-01-15T11:08:10;98209.00;;;19.26;33.41
4410;BME280;2218;51.408;7.208;2024-01-15T11:10:39;98215.94;;;19.27;33.36
4410;BME280;2218;51.408;7.208;2024-01-15T11:13:10;98211.66;;;19.26;33.12
4410;BME280;2218;51.408;7.208;2024-01-15T11:16:02;98209.00;;;19.26;33.51
4410;BME280;2218;51.408;7.208;2024-01-15T11:18:31;98210.66;;;19.27;33.42
4410;BME280;2218;51.408;7.208;2024-01-15T11:21:24;98209.00;;;19.26;33.28
4410;BME280;2218;51.408;7.208;2024-01-15T11:23:54;98208.19;;;19.26;33.60
4410;BME280;2218;51.408;7.208;2024-01-15T11:26:33;98214.28;;;19.26;33.61
4410;BME280;2218;51.408;7.208;2024-01-15T11:29:04;98210.66;;;19.27;33.44
4410;BME280;2218;51.408;7.208;2024-01-15T11:32:04;98209.00;;;19.26;33.35
4410;BME280;2218;51.408;7.208;2024-01-15T11:34:54;98216.75;;;19.28;33.27
4410;BME280;2218;51.408;7.208;2024-01-15T11:37:25;98215.09;;;19.27;33.56
4410;BME280;2218;51.408;7.208;2024-01-15T11:39:54;98211.66;;;19.26;33.36
4410;BME280;2218;51.408;7.208;2024-01-15T11:42:21;98206.22;;;19.28;33.58
4410;BME280;2218;51.408;7.208;2024-01-15T11:44:49;98205.41;;;19.27;33.29
4410;BME280;2218;51.408;7.208;2024-01-15T11:47:46;98203.75;;;19.26;33.44
4410;BME280;2218;51.408;7.208;2024-01-15T11:50:21;98210.66;;;19.27;33.19
4410;BME280;2218;51.408;7.208;2024-01-15T11:53:00;98205.41;;;19.27;33.50
4410;BME280;2218;51.408;7.208;2024-01-15T11:55:31;98202.78;;;19.27;33.34
4410;BME280;2218;51.408;7.208;2024-01-15T11:58:02;98202.78;;;19.27;33.52
4410;BME280;2218;51.408;7.208;2024-01-15T12:00:33;98199.31;;;19.27;33.13
4410;BME280;2218;51.408;7.208;2024-01-15T12:03:02;98195.69;;;19.28;33.36
4410;BME280;2218;51.408;7.208;2024-01-15T12:05:31;98193.22;;;19.26;33.42
4410;BME280;2218;51.408;7.208;2024-01-15T12:07:58;98187.94;;;19.26;33.53
4410;BME280;2218;51.408;7.208;2024-01-15T12:10:25;98199.31;;;19.27;33.69
4410;BME280;2218;51.408;7.208;2024-01-15T12:12:58;98194.03;;;19.27;33.41
4410;BME280;2218;51.408;7.208;2024-01-15T12:15:27;98196.53;;;19.28;33.37
4410;BME280;2218;51.408;7.208;2024-01-15T12:17:57;98188.78;;;19.27;33.42
4410;BME280;2218;51.408;7.208;2024-01-15T12:20:27;98201.78;;;19.28;33.49
4410;BME280;2218;51.408;7.208;2024-01-15T12:22:54;98200.13;;;19.27;33.43
4410;BME280;2218;51.408;7.208;2024-01-15T12:25:22;98200.13;;;19.27;33.56
4410;BME280;2218;51.408;7.208;2024-01-15T12:27:50;98207.06;;;19.28;33.59
4410;BME280;2218;51.408;7.208;2024-01-15T12:30:17;98210.53;;;19.29;33.49
4410;BME280;2218;51.408;7.208;2024-01-15T12:32:45;98205.41;;;19.27;33.13
4410;BME280;2218;51.408;7.208;2024-01-15T12:35:14;98210.66;;;19.27;33.54
4410;BME280;2218;51.408;7.208;2024-01-15T12:37:43;98201.78;;;19.28;33.53
4410;BME280;2218;51.408;7.208;2024-01-15T12:40:19;98197.50;;;19.27;33.45
4410;BME280;2218;51.408;7.208;2024-01-15T12:42:47;98204.56;;;19.27;33.89
4410;BME280;2218;51.408;7.208;2024-01-15T12:45:15;98212.31;;;19.28;33.48
4410;BME280;2218;51.408;7.208;2024-01-15T12:47:43;98208.03;;;19.27;33.84
4410;BME280;2218;51.408;7.208;2024-01-15T12:50:12;98200.13;;;19.27;33.52
4410;BME280;2218;51.408;7.208;2024-01-15T12:52:43;98206.22;;;19.28;33.65
4410;BME280;2218;51.408;7.208;2024-01-15T12:55:11;98207.06;;;19.28;33.66
4410;BME280;2218;51.408;7.208;2024-01-15T12:57:39;98208.84;;;19.28;33.83
4410;BME280;2218;51.408;7.208;2024-01-15T13:00:07;98214.13;;;19.28;33.40
4410;BME280;2218;51.408;7.208;2024-01-15T13:02:38;98217.59;;;19.28;33.66
4410;BME280;2218;51.408;7.208;2024-01-15T13:05:08;98215.94;;;19.27;33.83
4410;BME280;2218;51.408;7.208;2024-01-15T13:07:37;98229.09;;;19.27;33.32
4410;BME280;2218;51.408;7.208;2024-01-15T13:10:06;98226.47;;;19.27;33.77
4410;BME280;2218;51.408;7.208;2024-01-15T13:12:34;98224.53;;;19.29;33.50
4410;BME280;2218;51.408;7.208;2024-01-15T13:15:02;98228.13;;;19.28;33.43
4410;BME280;2218;51.408;7.208;2024-01-15T13:17:30;98221.06;;;19.29;33.58
4410;BME280;2218;51.408;7.208;2024-01-15T13:19:57;98230.75;;;19.28;33.81
4410;BME280;2218;51.408;7.208;2024-01-15T13:22:24;98222.84;;;19.28;33.72
4410;BME280;2218;51.408;7.208;2024-01-15T13:24:55;98218.41;;;19.29;33.69
4410;BME280;2218;51.408;7.208;2024-01-15T13:27:23;98218.41;;;19.29;33.53